sensor_id;sensor_type;location;lat;lon;timestamp;P1;durP1;ratioP1;P2;durP2;ratioP2
49314;SDS011;36672;50.710;12.498;2023-02-11T00:01:06;26.45;;;18.30;;
49314;SDS011;36672;50.710;12.498;2023-02-11T00:03:34;26.60;;;16.80;;
49314;SDS011;36672;50.710;12.498;2023-02-11T00:06:00;25.95;;;16.17;;
49314;SDS011;36672;50.710;12.498;2023-02-11T00:08:26;26.20;;;17.50;;
49314;SDS011;36672;50.710;12.498;2023-02-11T00:10:52;28.17;;;18.05;;
49314;SDS011;36672;50.710;12.498;2023-02-11T00:13:19;23.60;;;17.02;;
49314;SDS011;36672;50.710;12.498;2023-02-11T00:15:44;26.45;;;17.40;;
49314;SDS011;36672;50.710;12.498;2023-02-11T00:18:09;24.27;;;16.33;;
49314;SDS011;36672;50.710;12.498;2023-02-11T00:20:37;25.08;;;16.83;;
49314;SDS011;36672;50.710;12.498;2023-02-11T00:23:03;23.33;;;15.25;;
49314;SDS011;36672;50.710;12.498;2023-02-11T00:25:28;23.85;;;16.35;;
49314;SDS011;36672;50.710;12.498;2023-02-11T00:27:54;25.65;;;16.38;;
49314;SDS011;36672;50.710;12.498;2023-02-11T00:30:19;25.60;;;17.08;;
49314;SDS011;36672;50.710;12.498;2023-02-11T00:32:45;26.00;;;17.45;;
49314;SDS011;36672;50.710;12.498;2023-02-11T00:35:12;25.52;;;17.08;;
49314;SDS011;36672;50.710;12.498;2023-02-11T00:37:37;23.20;;;16.50;;
49314;SDS011;36672;50.710;12.498;2023-02-11T00:40:03;23.08;;;16.25;;
49314;SDS011;36672;50.710;12.498;2023-02-11T00:42:29;24.13;;;16.50;;
49314;SDS011;36672;50.710;12.498;2023-02-11T00:44:54;23.45;;;16.52;;
49314;SDS011;36672;50.710;12.498;2023-02-11T00:47:20;22.95;;;15.98;;
49314;SDS011;36672;50.710;12.498;2023-02-11T00:49:45;24.02;;;16.05;;
49314;SDS011;36672;50.710;12.498;2023-02-11T00:52:10;28.20;;;18.38;;
49314;SDS011;36672;50.710;12.498;2023-02-11T00:54:36;23.58;;;16.52;;
49314;SDS011;36672;50.710;12.498;2023-02-11T00:57:01;25.38;;;17.35;;
49314;SDS011;36672;50.710;12.498;2023-02-11T00:59:26;24.55;;;15.77;;
49314;SDS011;36672;50.710;12.498;2023-02-11T01:01:52;26.35;;;17.27;;
49314;SDS011;36672;50.710;12.498;2023-02-11T01:04:17;23.48;;;16.15;;
49314;SDS011;36672;50.710;12.498;2023-02-11T01:06:43;21.80;;;15.82;;
49314;SDS011;36672;50.710;12.498;2023-02-11T01:09:08;24.95;;;16.52;;
49314;SDS011;36672;50.710;12.498;2023-02-11T01:11:33;22.52;;;15.50;;
49314;SDS011;36672;50.710;12.498;2023-02-11T01:13:58;27.85;;;16.88;;
49314;SDS011;36672;50.710;12.498;2023-02-11T01:16:24;25.15;;;16.45;;
49314;SDS011;36672;50.710;12.498;2023-02-11T01:18:49;24.10;;;16.27;;
49314;SDS011;36672;50.710;12.498;2023-02-11T01:21:15;24.35;;;15.82;;
49314;SDS011;36672;50.710;12.498;2023-02-11T01:23:40;25.85;;;17.23;;
49314;SDS011;36672;50.710;12.498;2023-02-11T01:26:06;24.65;;;16.60;;
49314;SDS011;36672;50.710;12.498;2023-02-11T01:28:31;21.88;;;15.18;;
49314;SDS011;36672;50.710;12.498;2023-02-11T01:30:58;25.52;;;17.08;;
49314;SDS011;36672;50.710;12.498;2023-02-11T01:33:24;25.52;;;16.80;;
49314;SDS011;36672;50.710;12.498;2023-02-11T01:35:49;25.55;;;17.17;;
49314;SDS011;36672;50.710;12.498;2023-02-11T01:38:16;24.73;;;17.27;;
49314;SDS011;36672;50.710;12.498;2023-02-11T01:40:54;25.45;;;17.15;;
49314;SDS011;36672;50.710;12.498;2023-02-11T01:43:22;22.80;;;16.55;;
49314;SDS011;36672;50.710;12.498;2023-02-11T01:48:40;23.30;;;16.33;;
49314;SDS011;36672;50.710;12.498;2023-02-11T01:51:11;23.95;;;16.52;;
49314;SDS011;36672;50.710;12.498;2023-02-11T01:53:40;25.65;;;16.65;;
49314;SDS011;36672;50.710;12.498;2023-02-11T01:56:25;23.65;;;16.10;;
49314;SDS011;36672;50.710;12.498;2023-02-11T01:59:12;24.95;;;16.38;;
49314;SDS011;36672;50.710;12.498;2023-02-11T02:01:42;24.30;;;16.58;;
49314;SDS011;36672;50.710;12.498;2023-02-11T02:04:12;21.63;;;15.27;;
49314;SDS011;36672;50.710;12.498;2023-02-11T02:06:43;23.27;;;15.48;;
49314;SDS011;36672;50.710;12.498;2023-02-11T02:09:19;22.02;;;15.68;;
49314;SDS011;36672;50.710;12.498;2023-02-11T02:11:47;21.55;;;14.50;;
49314;SDS011;36672;50.710;12.498;2023-02-11T02:14:14;23.73;;;15.90;;
49314;SDS011;36672;50.710;12.498;2023-02-11T02:16:39;21.20;;;14.75;;
49314;SDS011;36672;50.710;12.498;2023-02-11T02:24:43;20.40;;;14.57;;
49314;SDS011;36672;50.710;12.498;2023-02-11T02:27:36;22.13;;;14.85;;
49314;SDS011;36672;50.710;12.498;2023-02-11T02:30:07;25.20;;;15.57;;
49314;SDS011;36672;50.710;12.498;2023-02-11T02:32:51;18.63;;;13.70;;
49314;SDS011;36672;50.710;12.498;2023-02-11T02:35:41;24.05;;;16.05;;
49314;SDS011;36672;50.710;12.498;2023-02-11T02:38:25;19.65;;;14.52;;
49314;SDS011;36672;50.710;12.498;2023-02-11T02:41:03;23.40;;;15.25;;
49314;SDS011;36672;50.710;12.498;2023-02-11T02:43:33;21.98;;;14.88;;
49314;SDS011;36672;50.710;12.498;2023-02-11T02:48:58;23.55;;;15.80;;
49314;SDS011;36672;50.710;12.498;2023-02-11T02:56:56;21.65;;;15.18;;
49314;SDS011;36672;50.710;12.498;2023-02-11T03:00:07;23.40;;;16.60;;
49314;SDS011;36672;50.710;12.498;2023-02-11T03:05:17;23.20;;;16.10;;
49314;SDS011;36672;50.710;12.498;2023-02-11T03:07:51;22.83;;;15.75;;
49314;SDS011;36672;50.710;12.498;2023-02-11T03:10:45;25.13;;;16.45;;
49314;SDS011;36672;50.710;12.498;2023-02-11T03:13:14;23.35;;;16.40;;
49314;SDS011;36672;50.710;12.498;2023-02-11T03:15:43;22.65;;;15.75;;
49314;SDS011;36672;50.710;12.498;2023-02-11T03:18:10;25.58;;;15.40;;
49314;SDS011;36672;50.710;12.498;2023-02-11T03:20:39;20.40;;;14.48;;
49314;SDS011;36672;50.710;12.498;2023-02-11T03:23:20;22.67;;;16.50;;
49314;SDS011;36672;50.710;12.498;2023-02-11T03:25:50;22.20;;;15.07;;
49314;SDS011;36672;50.710;12.498;2023-02-11T03:28:28;22.27;;;15.43;;
49314;SDS011;36672;50.710;12.498;2023-02-11T03:33:35;23.25;;;17.00;;
49314;SDS011;36672;50.710;12.498;2023-02-11T03:36:08;21.83;;;15.52;;
49314;SDS011;36672;50.710;12.498;2023-02-11T03:38:42;23.10;;;15.95;;
49314;SDS011;36672;50.710;12.498;2023-02-11T03:41:12;23.10;;;16.52;;
49314;SDS011;36672;50.710;12.498;2023-02-11T03:43:41;22.25;;;15.25;;
49314;SDS011;36672;50.710;12.498;2023-02-11T03:46:09;21.58;;;14.20;;
49314;SDS011;36672;50.710;12.498;2023-02-11T03:48:38;21.02;;;15.32;;
49314;SDS011;36672;50.710;12.498;2023-02-11T03:51:06;20.25;;;15.02;;
49314;SDS011;36672;50.710;12.498;2023-02-11T03:53:35;22.73;;;15.48;;
49314;SDS011;36672;50.710;12.498;2023-02-11T03:56:04;20.98;;;14.52;;
49314;SDS011;36672;50.710;12.498;2023-02-11T03:58:32;21.35;;;14.32;;
49314;SDS011;36672;50.710;12.498;2023-02-11T04:00:57;23.73;;;16.13;;
49314;SDS011;36672;50.710;12.498;2023-02-11T04:03:23;21.63;;;15.70;;
49314;SDS011;36672;50.710;12.498;2023-02-11T04:05:48;19.17;;;13.98;;
49314;SDS011;36672;50.710;12.498;2023-02-11T04:08:14;24.92;;;16.50;;
49314;SDS011;36672;50.710;12.498;2023-02-11T04:10:39;22.35;;;15.50;;
49314;SDS011;36672;50.710;12.498;2023-02-11T04:13:04;26.60;;;16.27;;
49314;SDS011;36672;50.710;12.498;2023-02-11T04:15:30;22.38;;;16.30;;
49314;SDS011;36672;50.710;12.498;2023-02-11T04:17:55;22.45;;;16.25;;
49314;SDS011;36672;50.710;12.498;2023-02-11T04:20:20;24.88;;;15.75;;
49314;SDS011;36672;50.710;12.498;2023-02-11T04:22:46;23.50;;;16.42;;
49314;SDS011;36672;50.710;12.498;2023-02-11T04:25:11;22.42;;;15.07;;
49314;SDS011;36672;50.710;12.498;2023-02-11T04:27:36;21.73;;;14.52;;
49314;SDS011;36672;50.710;12.498;2023-02-11T04:30:05;22.30;;;15.50;;
49314;SDS011;36672;50.710;12.498;2023-02-11T04:32:31;21.90;;;14.65;;
49314;SDS011;36672;50.710;12.498;2023-02-11T04:34:56;21.83;;;15.13;;
49314;SDS011;36672;50.710;12.498;2023-02-11T04:37:22;25.02;;;16.05;;
49314;SDS011;36672;50.710;12.498;2023-02-11T04:39:47;22.65;;;15.82;;
49314;SDS011;36672;50.710;12.498;2023-02-11T04:42:12;23.10;;;16.65;;
49314;SDS011;36672;50.710;12.498;2023-02-11T04:44:38;23.48;;;15.13;;
49314;SDS011;36672;50.710;12.498;2023-02-11T04:47:03;25.30;;;17.02;;
49314;SDS011;36672;50.710;12.498;2023-02-11T04:49:28;19.80;;;14.82;;
49314;SDS011;36672;50.710;12.498;2023-02-11T04:51:54;23.70;;;16.23;;
49314;SDS011;36672;50.710;12.498;2023-02-11T04:54:19;22.52;;;15.80;;
49314;SDS011;36672;50.710;12.498;2023-02-11T04:56:45;23.17;;;15.65;;
49314;SDS011;36672;50.710;12.498;2023-02-11T04:59:11;21.02;;;14.48;;
49314;SDS011;36672;50.710;12.498;2023-02-11T05:01:37;22.90;;;15.90;;
49314;SDS011;36672;50.710;12.498;2023-02-11T05:04:03;21.48;;;16.33;;
49314;SDS011;36672;50.710;12.498;2023-02-11T05:06:28;22.90;;;16.33;;
49314;SDS011;36672;50.710;12.498;2023-02-11T05:08:54;23.08;;;15.98;;
49314;SDS011;36672;50.710;12.498;2023-02-11T05:11:20;22.85;;;14.98;;
49314;SDS011;36672;50.710;12.498;2023-02-11T05:13:46;20.90;;;14.77;;
49314;SDS011;36672;50.710;12.498;2023-02-11T05:16:12;25.65;;;16.35;;
49314;SDS011;36672;50.710;12.498;2023-02-11T05:18:41;21.50;;;15.75;;
49314;SDS011;36672;50.710;12.498;2023-02-11T05:21:10;24.80;;;16.52;;
49314;SDS011;36672;50.710;12.498;2023-02-11T05:23:39;21.05;;;15.18;;
49314;SDS011;36672;50.710;12.498;2023-02-11T05:26:05;19.98;;;14.43;;
49314;SDS011;36672;50.710;12.498;2023-02-11T05:28:31;23.17;;;15.38;;
49314;SDS011;36672;50.710;12.498;2023-02-11T05:30:57;20.27;;;14.55;;
49314;SDS011;36672;50.710;12.498;2023-02-11T05:33:22;22.80;;;16.05;;
49314;SDS011;36672;50.710;12.498;2023-02-11T05:35:49;21.73;;;15.32;;
49314;SDS011;36672;50.710;12.498;2023-02-11T05:38:14;22.25;;;15.23;;
49314;SDS011;36672;50.710;12.498;2023-02-11T05:40:40;20.88;;;14.77;;
49314;SDS011;36672;50.710;12.498;2023-02-11T05:43:05;21.23;;;15.40;;
49314;SDS011;36672;50.710;12.498;2023-02-11T05:45:30;22.98;;;15.98;;
49314;SDS011;36672;50.710;12.498;2023-02-11T05:47:56;22.35;;;15.70;;
49314;SDS011;36672;50.710;12.498;2023-02-11T05:50:22;23.08;;;15.68;;
49314;SDS011;36672;50.710;12.498;2023-02-11T05:52:47;23.25;;;15.70;;
49314;SDS011;36672;50.710;12.498;2023-02-11T05:55:13;22.88;;;15.32;;
49314;SDS011;36672;50.710;12.498;2023-02-11T05:57:38;24.48;;;16.38;;
49314;SDS011;36672;50.710;12.498;2023-02-11T06:00:04;21.05;;;14.48;;
49314;SDS011;36672;50.710;12.498;2023-02-11T06:02:30;25.00;;;16.70;;
49314;SDS011;36672;50.710;12.498;2023-02-11T06:04:55;23.10;;;16.17;;
49314;SDS011;36672;50.710;12.498;2023-02-11T06:07:21;21.83;;;16.13;;
49314;SDS011;36672;50.710;12.498;2023-02-11T06:09:46;24.27;;;16.20;;
49314;SDS011;36672;50.710;12.498;2023-02-11T06:12:11;22.83;;;16.00;;
49314;SDS011;36672;50.710;12.498;2023-02-11T06:14:37;22.77;;;15.48;;
49314;SDS011;36672;50.710;12.498;2023-02-11T06:17:02;27.13;;;17.27;;
49314;SDS011;36672;50.710;12.498;2023-02-11T06:19:27;23.55;;;17.30;;
49314;SDS011;36672;50.710;12.498;2023-02-11T06:21:54;22.67;;;16.83;;
49314;SDS011;36672;50.710;12.498;2023-02-11T06:24:20;23.27;;;15.73;;
49314;SDS011;36672;50.710;12.498;2023-02-11T06:26:46;22.98;;;16.65;;
49314;SDS011;36672;50.710;12.498;2023-02-11T06:29:11;24.40;;;16.67;;
49314;SDS011;36672;50.710;12.498;2023-02-11T06:31:37;22.65;;;16.83;;
49314;SDS011;36672;50.710;12.498;2023-02-11T06:34:03;22.75;;;16.15;;
49314;SDS011;36672;50.710;12.498;2023-02-11T06:36:29;25.65;;;17.02;;
49314;SDS011;36672;50.710;12.498;2023-02-11T06:38:54;23.13;;;16.80;;
49314;SDS011;36672;50.710;12.498;2023-02-11T06:41:19;23.60;;;17.02;;
49314;SDS011;36672;50.710;12.498;2023-02-11T06:43:45;24.05;;;16.88;;
49314;SDS011;36672;50.710;12.498;2023-02-11T06:46:10;25.63;;;17.85;;
49314;SDS011;36672;50.710;12.498;2023-02-11T06:48:36;25.38;;;17.08;;
49314;SDS011;36672;50.710;12.498;2023-02-11T06:51:02;25.30;;;17.10;;
49314;SDS011;36672;50.710;12.498;2023-02-11T06:53:29;26.00;;;17.83;;
49314;SDS011;36672;50.710;12.498;2023-02-11T06:55:56;24.95;;;18.63;;
49314;SDS011;36672;50.710;12.498;2023-02-11T06:58:29;29.33;;;19.67;;
49314;SDS011;36672;50.710;12.498;2023-02-11T07:00:55;27.27;;;18.50;;
49314;SDS011;36672;50.710;12.498;2023-02-11T07:03:21;26.15;;;18.35;;
49314;SDS011;36672;50.710;12.498;2023-02-11T07:05:46;26.52;;;19.00;;
49314;SDS011;36672;50.710;12.498;2023-02-11T07:08:12;29.40;;;19.65;;
49314;SDS011;36672;50.710;12.498;2023-02-11T07:10:37;26.17;;;18.55;;
49314;SDS011;36672;50.710;12.498;2023-02-11T07:13:02;24.38;;;16.88;;
49314;SDS011;36672;50.710;12.498;2023-02-11T07:15:29;25.30;;;18.27;;
49314;SDS011;36672;50.710;12.498;2023-02-11T07:17:54;23.45;;;17.45;;
49314;SDS011;36672;50.710;12.498;2023-02-11T07:20:19;27.05;;;20.50;;
49314;SDS011;36672;50.710;12.498;2023-02-11T07:22:45;29.60;;;19.60;;
49314;SDS011;36672;50.710;12.498;2023-02-11T07:25:10;40.40;;;29.67;;
49314;SDS011;36672;50.710;12.498;2023-02-11T07:27:35;38.42;;;26.98;;
49314;SDS011;36672;50.710;12.498;2023-02-11T07:30:01;39.53;;;27.88;;
49314;SDS011;36672;50.710;12.498;2023-02-11T07:32:26;30.38;;;21.63;;
49314;SDS011;36672;50.710;12.498;2023-02-11T07:34:52;29.00;;;20.23;;
49314;SDS011;36672;50.710;12.498;2023-02-11T07:37:17;30.80;;;20.35;;
49314;SDS011;36672;50.710;12.498;2023-02-11T07:39:43;29.02;;;21.08;;
49314;SDS011;36672;50.710;12.498;2023-02-11T07:42:09;32.47;;;21.15;;
49314;SDS011;36672;50.710;12.498;2023-02-11T07:44:34;28.27;;;20.00;;
49314;SDS011;36672;50.710;12.498;2023-02-11T07:47:01;28.67;;;19.58;;
49314;SDS011;36672;50.710;12.498;2023-02-11T07:49:26;28.20;;;19.92;;
49314;SDS011;36672;50.710;12.498;2023-02-11T07:51:52;31.38;;;18.73;;
49314;SDS011;36672;50.710;12.498;2023-02-11T07:54:17;28.27;;;19.55;;
49314;SDS011;36672;50.710;12.498;2023-02-11T07:56:42;31.92;;;20.55;;
49314;SDS011;36672;50.710;12.498;2023-02-11T07:59:09;27.77;;;19.83;;
49314;SDS011;36672;50.710;12.498;2023-02-11T08:01:35;27.35;;;19.98;;
49314;SDS011;36672;50.710;12.498;2023-02-11T08:04:01;29.45;;;19.75;;
49314;SDS011;36672;50.710;12.498;2023-02-11T08:06:28;29.85;;;21.00;;
49314;SDS011;36672;50.710;12.498;2023-02-11T08:08:55;30.10;;;20.13;;
49314;SDS011;36672;50.710;12.498;2023-02-11T08:11:22;25.73;;;18.52;;
49314;SDS011;36672;50.710;12.498;2023-02-11T08:13:50;26.50;;;18.65;;
49314;SDS011;36672;50.710;12.498;2023-02-11T08:16:25;27.50;;;19.65;;
49314;SDS011;36672;50.710;12.498;2023-02-11T08:18:54;33.70;;;21.02;;
49314;SDS011;36672;50.710;12.498;2023-02-11T08:21:21;28.15;;;19.73;;
49314;SDS011;36672;50.710;12.498;2023-02-11T08:23:48;27.17;;;18.88;;
49314;SDS011;36672;50.710;12.498;2023-02-11T08:26:15;28.17;;;19.90;;
49314;SDS011;36672;50.710;12.498;2023-02-11T08:28:46;28.30;;;19.73;;
49314;SDS011;36672;50.710;12.498;2023-02-11T08:31:15;26.70;;;19.00;;
49314;SDS011;36672;50.710;12.498;2023-02-11T08:33:42;27.15;;;18.70;;
49314;SDS011;36672;50.710;12.498;2023-02-11T08:36:08;27.08;;;19.02;;
49314;SDS011;36672;50.710;12.498;2023-02-11T08:38:34;28.98;;;19.08;;
49314;SDS011;36672;50.710;12.498;2023-02-11T08:40:59;27.63;;;18.83;;
49314;SDS011;36672;50.710;12.498;2023-02-11T08:43:25;29.98;;;19.90;;
49314;SDS011;36672;50.710;12.498;2023-02-11T08:45:50;32.67;;;19.52;;
49314;SDS011;36672;50.710;12.498;2023-02-11T08:48:15;25.80;;;18.48;;
49314;SDS011;36672;50.710;12.498;2023-02-11T08:50:41;23.95;;;17.92;;
49314;SDS011;36672;50.710;12.498;2023-02-11T08:53:06;33.33;;;21.45;;
49314;SDS011;36672;50.710;12.498;2023-02-11T08:55:32;28.27;;;19.38;;
49314;SDS011;36672;50.710;12.498;2023-02-11T08:57:57;30.08;;;19.90;;
49314;SDS011;36672;50.710;12.498;2023-02-11T09:00:22;33.38;;;20.58;;
49314;SDS011;36672;50.710;12.498;2023-02-11T09:02:48;28.23;;;19.05;;
49314;SDS011;36672;50.710;12.498;2023-02-11T09:05:13;27.25;;;19.13;;
49314;SDS011;36672;50.710;12.498;2023-02-11T09:07:39;28.80;;;18.77;;
49314;SDS011;36672;50.710;12.498;2023-02-11T09:10:04;27.38;;;18.83;;
49314;SDS011;36672;50.710;12.498;2023-02-11T09:12:30;26.05;;;18.17;;
49314;SDS011;36672;50.710;12.498;2023-02-11T09:14:55;25.35;;;18.58;;
49314;SDS011;36672;50.710;12.498;2023-02-11T09:17:21;23.73;;;18.35;;
49314;SDS011;36672;50.710;12.498;2023-02-11T09:19:46;30.52;;;20.38;;
49314;SDS011;36672;50.710;12.498;2023-02-11T09:22:11;27.30;;;18.70;;
49314;SDS011;36672;50.710;12.498;2023-02-11T09:24:37;28.65;;;20.63;;
49314;SDS011;36672;50.710;12.498;2023-02-11T09:27:02;28.65;;;19.65;;
49314;SDS011;36672;50.710;12.498;2023-02-11T09:29:27;29.48;;;20.02;;
49314;SDS011;36672;50.710;12.498;2023-02-11T09:31:53;25.00;;;18.35;;
49314;SDS011;36672;50.710;12.498;2023-02-11T09:34:18;28.35;;;19.73;;
49314;SDS011;36672;50.710;12.498;2023-02-11T09:36:43;25.45;;;18.25;;
49314;SDS011;36672;50.710;12.498;2023-02-11T09:39:14;26.30;;;18.70;;
49314;SDS011;36672;50.710;12.498;2023-02-11T09:41:53;23.45;;;17.58;;
49314;SDS011;36672;50.710;12.498;2023-02-11T09:44:31;22.75;;;16.83;;
49314;SDS011;36672;50.710;12.498;2023-02-11T09:49:48;27.60;;;19.10;;
49314;SDS011;36672;50.710;12.498;2023-02-11T09:52:29;27.95;;;18.95;;
49314;SDS011;36672;50.710;12.498;2023-02-11T09:55:17;26.98;;;19.00;;
49314;SDS011;36672;50.710;12.498;2023-02-11T09:57:46;29.48;;;20.00;;
49314;SDS011;36672;50.710;12.498;2023-02-11T10:00:32;30.58;;;20.60;;
49314;SDS011;36672;50.710;12.498;2023-02-11T10:08:48;30.63;;;20.27;;
49314;SDS011;36672;50.710;12.498;2023-02-11T10:16:44;28.45;;;19.65;;
49314;SDS011;36672;50.710;12.498;2023-02-11T10:22:40;25.55;;;18.55;;
49314;SDS011;36672;50.710;12.498;2023-02-11T10:27:47;26.85;;;19.55;;
49314;SDS011;36672;50.710;12.498;2023-02-11T10:30:22;29.45;;;21.35;;
49314;SDS011;36672;50.710;12.498;2023-02-11T10:33:10;31.80;;;21.33;;
49314;SDS011;36672;50.710;12.498;2023-02-11T10:35:44;26.13;;;17.90;;
49314;SDS011;36672;50.710;12.498;2023-02-11T10:38:09;26.80;;;18.42;;
49314;SDS011;36672;50.710;12.498;2023-02-11T10:40:35;30.80;;;19.00;;
49314;SDS011;36672;50.710;12.498;2023-02-11T10:43:02;27.90;;;19.58;;
49314;SDS011;36672;50.710;12.498;2023-02-11T10:51:27;24.58;;;17.92;;
49314;SDS011;36672;50.710;12.498;2023-02-11T10:56:48;25.98;;;18.00;;
49314;SDS011;36672;50.710;12.498;2023-02-11T10:59:36;24.45;;;17.75;;
49314;SDS011;36672;50.710;12.498;2023-02-11T11:02:04;26.67;;;19.10;;
49314;SDS011;36672;50.710;12.498;2023-02-11T11:04:45;26.88;;;18.17;;
49314;SDS011;36672;50.710;12.498;2023-02-11T11:07:17;25.65;;;17.65;;
49314;SDS011;36672;50.710;12.498;2023-02-11T11:09:49;25.00;;;18.77;;
49314;SDS011;36672;50.710;12.498;2023-02-11T11:17:40;25.98;;;17.23;;
49314;SDS011;36672;50.710;12.498;2023-02-11T11:22:44;25.08;;;18.30;;
49314;SDS011;36672;50.710;12.498;2023-02-11T11:25:19;26.92;;;18.83;;
49314;SDS011;36672;50.710;12.498;2023-02-11T11:27:52;24.73;;;18.13;;
49314;SDS011;36672;50.710;12.498;2023-02-11T11:30:20;27.60;;;18.23;;
49314;SDS011;36672;50.710;12.498;2023-02-11T11:32:50;28.33;;;19.17;;
49314;SDS011;36672;50.710;12.498;2023-02-11T11:35:28;25.67;;;17.83;;
49314;SDS011;36672;50.710;12.498;2023-02-11T11:38:01;22.77;;;17.38;;
49314;SDS011;36672;50.710;12.498;2023-02-11T11:40:29;24.45;;;17.90;;
49314;SDS011;36672;50.710;12.498;2023-02-11T11:43:04;27.63;;;17.58;;
49314;SDS011;36672;50.710;12.498;2023-02-11T11:45:39;24.98;;;17.02;;
49314;SDS011;36672;50.710;12.498;2023-02-11T11:48:25;24.95;;;17.25;;
49314;SDS011;36672;50.710;12.498;2023-02-11T11:51:02;25.83;;;18.83;;
49314;SDS011;36672;50.710;12.498;2023-02-11T11:55:58;26.40;;;18.85;;
49314;SDS011;36672;50.710;12.498;2023-02-11T11:58:27;25.30;;;18.15;;
49314;SDS011;36672;50.710;12.498;2023-02-11T12:23:13;23.50;;;16.52;;
49314;SDS011;36672;50.710;12.498;2023-02-11T12:39:52;20.75;;;16.38;;
49314;SDS011;36672;50.710;12.498;2023-02-11T12:54:19;19.75;;;15.27;;
49314;SDS011;36672;50.710;12.498;2023-02-11T12:57:02;19.98;;;14.80;;
49314;SDS011;36672;50.710;12.498;2023-02-11T13:02:28;20.77;;;15.30;;
49314;SDS011;36672;50.710;12.498;2023-02-11T13:05:04;17.98;;;13.95;;
49314;SDS011;36672;50.710;12.498;2023-02-11T13:07:39;19.23;;;14.13;;
49314;SDS011;36672;50.710;12.498;2023-02-11T13:10:21;18.92;;;14.75;;
49314;SDS011;36672;50.710;12.498;2023-02-11T13:12:50;20.83;;;15.43;;
49314;SDS011;36672;50.710;12.498;2023-02-11T13:15:54;18.52;;;14.45;;
49314;SDS011;36672;50.710;12.498;2023-02-11T13:23:45;18.70;;;13.70;;
49314;SDS011;36672;50.710;12.498;2023-02-11T13:26:26;19.88;;;14.52;;
49314;SDS011;36672;50.710;12.498;2023-02-11T13:31:34;18.33;;;13.77;;
49314;SDS011;36672;50.710;12.498;2023-02-11T13:34:00;19.50;;;15.13;;
49314;SDS011;36672;50.710;12.498;2023-02-11T13:36:28;18.08;;;13.73;;
49314;SDS011;36672;50.710;12.498;2023-02-11T13:39:03;18.70;;;14.27;;
49314;SDS011;36672;50.710;12.498;2023-02-11T13:41:31;18.77;;;14.45;;
49314;SDS011;36672;50.710;12.498;2023-02-11T13:43:58;18.88;;;14.60;;
49314;SDS011;36672;50.710;12.498;2023-02-11T13:46:26;19.77;;;15.20;;
49314;SDS011;36672;50.710;12.498;2023-02-11T13:48:54;16.50;;;13.05;;
49314;SDS011;36672;50.710;12.498;2023-02-11T13:51:36;23.05;;;15.00;;
49314;SDS011;36672;50.710;12.498;2023-02-11T13:54:04;19.23;;;14.18;;
49314;SDS011;36672;50.710;12.498;2023-02-11T13:56:33;18.27;;;13.88;;
49314;SDS011;36672;50.710;12.498;2023-02-11T13:59:01;18.00;;;15.02;;
49314;SDS011;36672;50.710;12.498;2023-02-11T14:04:36;20.40;;;14.93;;
49314;SDS011;36672;50.710;12.498;2023-02-11T14:07:40;20.33;;;15.05;;
49314;SDS011;36672;50.710;12.498;2023-02-11T14:10:50;19.95;;;13.20;;
49314;SDS011;36672;50.710;12.498;2023-02-11T14:13:27;19.42;;;14.50;;
49314;SDS011;36672;50.710;12.498;2023-02-11T14:16:09;22.30;;;14.93;;
49314;SDS011;36672;50.710;12.498;2023-02-11T14:23:52;23.60;;;15.05;;
49314;SDS011;36672;50.710;12.498;2023-02-11T14:31:37;28.15;;;15.00;;
49314;SDS011;36672;50.710;12.498;2023-02-11T14:34:29;19.63;;;13.63;;
49314;SDS011;36672;50.710;12.498;2023-02-11T14:42:24;16.25;;;13.15;;
49314;SDS011;36672;50.710;12.498;2023-02-11T14:44:53;17.38;;;13.27;;
49314;SDS011;36672;50.710;12.498;2023-02-11T14:47:27;17.30;;;12.68;;
49314;SDS011;36672;50.710;12.498;2023-02-11T14:50:05;17.45;;;13.27;;
49314;SDS011;36672;50.710;12.498;2023-02-11T14:52:38;17.45;;;12.88;;
49314;SDS011;36672;50.710;12.498;2023-02-11T14:55:05;18.65;;;13.65;;
49314;SDS011;36672;50.710;12.498;2023-02-11T14:57:37;18.55;;;13.43;;
49314;SDS011;36672;50.710;12.498;2023-02-11T15:00:04;17.67;;;12.68;;
49314;SDS011;36672;50.710;12.498;2023-02-11T15:02:38;19.45;;;14.15;;
49314;SDS011;36672;50.710;12.498;2023-02-11T15:05:14;19.27;;;14.18;;
49314;SDS011;36672;50.710;12.498;2023-02-11T15:07:44;17.38;;;13.02;;
49314;SDS011;36672;50.710;12.498;2023-02-11T15:10:26;19.65;;;14.05;;
49314;SDS011;36672;50.710;12.498;2023-02-11T15:13:13;19.35;;;14.00;;
49314;SDS011;36672;50.710;12.498;2023-02-11T15:15:42;19.50;;;13.95;;
49314;SDS011;36672;50.710;12.498;2023-02-11T15:18:12;20.08;;;13.90;;
49314;SDS011;36672;50.710;12.498;2023-02-11T15:20:46;21.50;;;14.45;;
49314;SDS011;36672;50.710;12.498;2023-02-11T15:23:21;20.70;;;14.43;;
49314;SDS011;36672;50.710;12.498;2023-02-11T15:25:49;19.23;;;14.20;;
49314;SDS011;36672;50.710;12.498;2023-02-11T15:28:44;20.27;;;15.15;;
49314;SDS011;36672;50.710;12.498;2023-02-11T15:31:16;20.55;;;14.30;;
49314;SDS011;36672;50.710;12.498;2023-02-11T15:33:43;17.35;;;12.85;;
49314;SDS011;36672;50.710;12.498;2023-02-11T15:36:13;18.77;;;13.32;;
49314;SDS011;36672;50.710;12.498;2023-02-11T15:38:39;18.98;;;14.27;;
49314;SDS011;36672;50.710;12.498;2023-02-11T15:41:05;21.85;;;15.15;;
49314;SDS011;36672;50.710;12.498;2023-02-11T15:43:50;19.50;;;14.43;;
49314;SDS011;36672;50.710;12.498;2023-02-11T15:46:17;20.38;;;14.50;;
49314;SDS011;36672;50.710;12.498;2023-02-11T15:48:46;19.38;;;13.98;;
49314;SDS011;36672;50.710;12.498;2023-02-11T15:51:22;19.65;;;14.23;;
49314;SDS011;36672;50.710;12.498;2023-02-11T15:53:57;18.67;;;13.02;;
49314;SDS011;36672;50.710;12.498;2023-02-11T15:56:26;20.88;;;14.43;;
49314;SDS011;36672;50.710;12.498;2023-02-11T15:58:55;18.33;;;13.27;;
49314;SDS011;36672;50.710;12.498;2023-02-11T16:01:30;19.65;;;13.38;;
49314;SDS011;36672;50.710;12.498;2023-02-11T16:03:58;19.42;;;14.23;;
49314;SDS011;36672;50.710;12.498;2023-02-11T16:06:34;17.80;;;14.20;;
49314;SDS011;36672;50.710;12.498;2023-02-11T16:16:52;17.92;;;13.20;;
49314;SDS011;36672;50.710;12.498;2023-02-11T16:19:21;18.95;;;14.10;;
49314;SDS011;36672;50.710;12.498;2023-02-11T16:21:48;19.48;;;13.38;;
49314;SDS011;36672;50.710;12.498;2023-02-11T16:24:17;20.17;;;14.95;;
49314;SDS011;36672;50.710;12.498;2023-02-11T16:26:49;19.45;;;14.23;;
49314;SDS011;36672;50.710;12.498;2023-02-11T16:29:19;22.23;;;14.73;;
49314;SDS011;36672;50.710;12.498;2023-02-11T16:31:48;23.20;;;14.70;;
49314;SDS011;36672;50.710;12.498;2023-02-11T16:36:45;23.23;;;15.57;;
49314;SDS011;36672;50.710;12.498;2023-02-11T16:39:11;21.23;;;14.82;;
49314;SDS011;36672;50.710;12.498;2023-02-11T16:41:37;25.02;;;17.10;;
49314;SDS011;36672;50.710;12.498;2023-02-11T16:44:03;22.95;;;15.15;;
49314;SDS011;36672;50.710;12.498;2023-02-11T16:46:29;20.52;;;14.75;;
49314;SDS011;36672;50.710;12.498;2023-02-11T16:48:55;21.88;;;14.27;;
49314;SDS011;36672;50.710;12.498;2023-02-11T16:51:22;20.80;;;14.30;;